Napa, CA (94558)

7:31 AM PST on February 08, 2016 (GMT -0800)
Old Soda Springs Rd 850 ft | | Change Station
CLOSE
Current Station
Personal Weather Station
Location: Napa, CA
Elevation: 846 ft
Nearby Weather Stations

Elev 846 ft 38.38 °N, 122.27 °W | Updated 18 seconds ago

Clear
Clear
61.8 °F
Feels Like 61.8 °F
N
0.0
Wind Variable Wind from SSW
Gusts 0.0 mph

Today
High -- | Low -- °F
--% Chance of Precip.
Yesterday
High -- | Low -- °F
Precip. -- in
Pressure 30.20 in
Visibility 10.0 miles
Clouds Clear
Dew Point 37 °F
Humidity 40%
Rainfall 0.00 in
Snow Depth Not available.
7:08 AM 5:39 PM
New Moon, 0% visible
METAR KAPC 081454Z 09010KT 10SM CLR 11/06 A3022 RMK AO2 SLP225 T01060061 53002
Pressure 30.20 in
Visibility 10.0 miles
Clouds Clear
Dew Point 37 °F
Humidity 40%
Rainfall 0.00 in
Snow Depth Not available.
7:08 AM 5:39 PM
New Moon, 0% visible
METAR KAPC 081454Z 09010KT 10SM CLR 11/06 A3022 RMK AO2 SLP225 T01060061 53002

10-Day Weather Forecast

Almanac

Astronomy

Feb. 08, 2016 Rise Set
Actual Time
Civil Twilight
Nautical Twilight
Astronomical Twilight
Moon
Length of Visible Light
Length of Day
Tomorrow will be .
, % of the Moon is Illuminated

Today's Extremes

State Highs State Lows

Community

WunderPhotos

Upload Photos

1,891,440 photos uploaded!

WunderBlog® & News

Nearby

Air Quality

  Air Quality AQ Index Pollutant
Not available.

Snow Depth

Station Depth Elevation

Earthquake Activity

City Distance Mag. Time & Date
Minimum magnitude displayed is 2.5.

Coastal Water Temperatures

Place Temperature

Stations

Nearby Weather Stations

Station Location Temp. Windchill Dew Point Humidity Wind Precip. Elev Updated Type
                   

Watches & Warnings

There are currently no watches in effect.